Time;durP1;ratioP1;P1;durP2;ratioP2;P2;SDS_P1;SDS_P2;PMS_P1;PMS_P2;Temp;Humidity;BMP_temperature;BMP_pressure;BME280_temperature;BME280_humidity;BME280_pressure;Samples;Min_cycle;Max_cycle;Signal;HPM_P1;HPM_P2
2022/07/03 02:49:00;;;;;;;7.30;6.60;;;15.20;99.90;;;;;;6143552;23;20197;31
2022/07/03 02:51:36;;;;;;;7.63;6.87;;;15.10;99.90;;;;;;4934908;29;20579;-89
2022/07/03 02:54:10;;;;;;;9.33;7.27;;;15.00;1.00;;;;;;4936966;28;20202;-89
2022/07/03 02:57:04;;;;;;;12.80;7.93;;;15.00;1.00;;;;;;4937150;29;20183;-90
2022/07/03 02:59:54;;;;;;;10.90;7.57;;;14.80;1.00;;;;;;4960433;29;20210;-94
2022/07/03 03:02:52;;;;;;;10.67;7.73;;;14.90;99.90;;;;;;4959779;29;20234;-93
2022/07/03 03:05:34;;;;;;;12.73;7.80;;;14.80;99.90;;;;;;4959983;29;20191;-92
2022/07/03 03:08:06;;;;;;;11.53;7.70;;;;;;;;;;4958930;29;20191;-92
2022/07/03 03:10:37;;;;;;;11.13;7.50;;;14.60;1.00;;;;;;4958757;29;20225;-92
2022/07/03 03:13:06;;;;;;;10.57;6.77;;;14.50;1.00;;;;;;4957928;29;20277;-91
2022/07/03 03:15:38;;;;;;;9.13;7.07;;;14.60;1.00;;;;;;4957529;28;20206;-92
2022/07/03 03:21:00;;;;;;;7.97;7.20;;;14.70;1.00;;;;;;4956216;28;20197;-92
2022/07/03 03:23:44;;;;;;;8.93;6.87;;;14.80;1.00;;;;;;4958566;29;20263;-92
2022/07/03 03:26:13;;;;;;;7.97;6.80;;;14.80;99.90;;;;;;4956866;29;20211;-91
2022/07/03 03:28:42;;;;;;;8.70;6.27;;;14.80;1.00;;;;;;4958945;29;20210;-90
2022/07/03 03:31:13;;;;;;;6.33;5.70;;;14.90;1.00;;;;;;4957843;29;20219;-91
2022/07/03 03:33:42;;;;;;;8.50;6.30;;;15.00;48.70;;;;;;4958301;29;20219;-89
2022/07/03 03:36:11;;;;;;;8.07;5.80;;;15.00;89.90;;;;;;4957101;29;20207;-90
2022/07/03 03:38:41;;;;;;;7.53;6.63;;;15.10;96.80;;;;;;4958634;29;20223;-91
2022/07/03 03:41:10;;;;;;;7.57;6.70;;;15.20;99.90;;;;;;4957644;29;20227;-92
2022/07/03 03:43:38;;;;;;;7.93;6.67;;;15.20;99.90;;;;;;4955216;28;20219;-92
2022/07/03 03:46:07;;;;;;;8.23;6.23;;;15.30;99.90;;;;;;4956190;29;20220;-91
2022/07/03 03:48:36;;;;;;;8.60;5.57;;;15.50;1.00;;;;;;4957009;29;20235;-92
2022/07/03 03:51:07;;;;;;;6.60;4.90;;;16.20;1.00;;;;;;4995170;28;20338;-91
2022/07/03 03:53:41;;;;;;;5.72;4.22;;;17.30;99.90;;;;;;4996931;28;20693;-89
2022/07/03 03:56:25;;;;;;;6.88;4.22;;;18.60;1.00;;;;;;4996255;28;20182;-93
2022/07/03 03:58:53;;;;;;;4.45;3.92;;;20.00;99.90;;;;;;4995882;28;20229;-91
2022/07/03 04:01:21;;;;;;;4.50;3.88;;;21.20;1.00;;;;;;4995974;28;20209;-92
2022/07/03 04:03:48;;;;;;;4.68;3.47;;;;;;;;;;4994776;28;20188;-89
2022/07/03 04:06:15;;;;;;;;;;;23.20;95.70;;;;;;4974521;28;20069;-89
2022/07/03 04:08:44;;;;;;;4.43;3.70;;;24.40;1.00;;;;;;4973787;28;20224;-91
2022/07/03 04:11:10;;;;;;;;;;;25.30;99.90;;;;;;4974493;28;20416;-89
2022/07/03 04:13:37;;;;;;;4.30;3.47;;;26.10;99.90;;;;;;4973852;28;20224;-90
2022/07/03 04:16:05;;;;;;;5.10;3.17;;;27.10;99.90;;;;;;4973865;28;20199;-90
2022/07/03 04:18:32;;;;;;;5.07;3.30;;;27.80;99.90;;;;;;4974098;28;20191;-92
2022/07/03 04:20:59;;;;;;;3.53;3.13;;;28.60;99.90;;;;;;4973561;28;20161;-89
2022/07/03 04:23:26;;;;;;;3.50;3.00;;;29.20;99.90;;;;;;4973581;28;20255;-90
2022/07/03 04:25:55;;;;;;;4.22;3.25;;;29.80;99.90;;;;;;4973842;28;20669;-90
2022/07/03 04:28:22;;;;;;;6.00;2.90;;;30.40;92.00;;;;;;4973910;28;20188;-90
2022/07/03 04:30:49;;;;;;;;;;;30.90;96.30;;;;;;4974493;28;20050;-90
2022/07/03 04:33:16;;;;;;;4.03;3.10;;;31.50;63.30;;;;;;4973916;28;20271;-90
2022/07/03 04:35:43;;;;;;;3.78;2.88;;;32.20;52.50;;;;;;4973706;28;20200;-90
2022/07/03 04:38:11;;;;;;;3.22;2.92;;;32.60;46.80;;;;;;4973818;28;20199;-90
2022/07/03 04:40:38;;;;;;;7.05;2.85;;;33.20;37.90;;;;;;4973245;28;20212;-90
2022/07/03 04:43:06;;;;;;;4.15;2.42;;;33.70;32.30;;;;;;4973596;28;20207;-90
2022/07/03 04:45:33;;;;;;;5.45;3.05;;;34.30;26.10;;;;;;4973208;28;20217;-90
2022/07/03 04:48:00;;;;;;;5.10;2.75;;;34.60;21.60;;;;;;4973792;28;20207;-92
2022/07/03 04:50:27;;;;;;;2.90;2.70;;;34.90;18.30;;;;;;4973430;28;20231;-90
2022/07/03 04:52:54;;;;;;;7.65;5.78;;;35.10;15.60;;;;;;4973550;28;20211;-90
2022/07/03 04:55:21;;;;;;;7.15;3.90;;;35.20;13.10;;;;;;4973799;28;20195;-91
2022/07/03 04:57:48;;;;;;;3.67;2.90;;;35.50;10.00;;;;;;4973853;28;20230;-90
2022/07/03 05:00:17;;;;;;;;;;;35.90;7.20;;;;;;4974152;28;20074;-90
2022/07/03 05:02:44;;;;;;;3.95;3.50;;;36.20;4.10;;;;;;4973558;28;20273;-89
2022/07/03 05:05:11;;;;;;;3.75;3.10;;;36.50;2.30;;;;;;4973083;28;20271;-91
2022/07/03 05:07:38;;;;;;;4.18;2.50;;;36.80;1.00;;;;;;4973449;28;20199;-90
2022/07/03 05:10:07;;;;;;;3.17;2.88;;;37.30;1.00;;;;;;4973516;28;20214;-91
2022/07/03 05:12:34;;;;;;;3.30;2.70;;;37.70;1.00;;;;;;4973537;28;20258;-90
2022/07/03 05:15:01;;;;;;;4.22;3.75;;;37.80;1.00;;;;;;4973432;28;20207;-91
2022/07/03 05:17:29;;;;;;;5.65;3.20;;;37.90;1.00;;;;;;4973364;28;20608;-90
2022/07/03 05:22:37;;;;;;;4.78;3.60;;;38.10;1.00;;;;;;4975656;28;20181;-90
2022/07/03 05:25:05;;;;;;;3.45;2.30;;;38.00;1.00;;;;;;4976071;28;20661;-90
2022/07/03 05:27:35;;;;;;;5.10;4.70;;;38.00;1.00;;;;;;4976740;28;20196;-92
2022/07/03 05:30:03;;;;;;;3.13;2.17;;;38.00;1.00;;;;;;4976710;28;20199;-91
2022/07/03 05:32:31;;;;;;;4.43;2.65;;;38.20;1.00;;;;;;4976466;28;20217;-90
2022/07/03 05:34:58;;;;;;;4.57;2.53;;;38.20;1.00;;;;;;4976384;28;20199;-91
2022/07/03 05:37:25;;;;;;;3.38;2.15;;;38.30;1.00;;;;;;4976304;28;20203;-92
2022/07/03 05:39:52;;;;;;;2.85;1.92;;;38.60;1.00;;;;;;4976442;28;20207;-92
2022/07/03 05:42:20;;;;;;;2.40;2.20;;;38.60;1.00;;;;;;4976642;28;20206;-91
2022/07/03 05:44:47;;;;;;;2.60;2.03;;;38.60;1.00;;;;;;4976022;28;20195;-91
2022/07/03 05:47:14;;;;;;;3.35;2.22;;;38.80;1.00;;;;;;4976133;28;20195;-90
2022/07/03 05:49:43;;;;;;;2.17;1.75;;;38.80;1.00;;;;;;4976014;28;20286;-90
2022/07/03 05:52:10;;;;;;;3.00;1.85;;;38.90;1.00;;;;;;4976341;28;20202;-92
2022/07/03 05:54:37;;;;;;;3.35;1.95;;;39.10;1.00;;;;;;4975418;28;20195;-91
2022/07/03 05:57:05;;;;;;;3.83;1.70;;;39.60;1.00;;;;;;4975750;28;20254;-90
2022/07/03 05:59:32;;;;;;;2.53;1.88;;;39.80;1.00;;;;;;4975893;28;20199;-90
2022/07/03 06:01:59;;;;;;;2.00;1.77;;;39.80;1.00;;;;;;4975953;28;20215;-90
2022/07/03 06:04:26;;;;;;;3.25;1.73;;;39.90;1.00;;;;;;4975958;28;20650;-90
2022/07/03 06:06:55;;;;;;;2.38;1.75;;;40.30;1.00;;;;;;4975665;28;20191;-90
2022/07/03 06:09:22;;;;;;;3.75;1.95;;;40.70;1.00;;;;;;4976088;28;20199;-91
2022/07/03 06:11:50;;;;;;;2.90;1.60;;;41.00;1.00;;;;;;4975905;28;20202;-92
2022/07/03 06:14:17;;;;;;;2.15;1.80;;;41.40;1.00;;;;;;4975441;28;20199;-91
2022/07/03 06:16:44;;;;;;;2.72;1.70;;;41.80;1.00;;;;;;4975392;28;20230;-91
2022/07/03 06:19:11;;;;;;;3.53;1.60;;;41.80;1.00;;;;;;4975891;28;20271;-91
2022/07/03 06:21:38;;;;;;;2.03;1.58;;;42.00;1.00;;;;;;4975369;28;20214;-91
2022/07/03 06:24:07;;;;;;;2.55;1.80;;;42.10;1.00;;;;;;4975379;28;20202;-90
2022/07/03 06:26:35;;;;;;;2.72;1.80;;;42.20;1.00;;;;;;4975403;28;20214;-90
2022/07/03 06:29:02;;;;;;;2.72;1.65;;;42.10;1.00;;;;;;4975413;28;20210;-90
2022/07/03 06:31:30;;;;;;;2.47;1.77;;;42.00;1.00;;;;;;4974881;28;20226;-91
2022/07/03 06:33:57;;;;;;;2.17;1.98;;;42.10;1.00;;;;;;4975349;28;20195;-90
2022/07/03 06:36:24;;;;;;;3.63;2.10;;;42.00;1.00;;;;;;4975537;28;20195;-90
2022/07/03 06:38:51;;;;;;;2.47;2.00;;;42.00;1.00;;;;;;4975539;28;20230;-91
2022/07/03 06:41:19;;;;;;;2.67;2.47;;;42.00;1.00;;;;;;4975213;28;20316;-90
2022/07/03 06:43:46;;;;;;;2.40;2.20;;;42.00;1.00;;;;;;4975208;28;20257;-89
2022/07/03 06:46:13;;;;;;;2.67;1.60;;;41.80;1.00;;;;;;4974748;28;20560;-91
2022/07/03 06:48:41;;;;;;;2.70;1.60;;;41.70;1.00;;;;;;4974959;28;20195;-91
2022/07/03 06:51:08;;;;;;;2.05;1.70;;;41.90;1.00;;;;;;4975102;28;20227;-91
2022/07/03 06:53:35;;;;;;;2.58;1.85;;;41.80;1.00;;;;;;4975105;28;20563;-91
2022/07/03 06:56:02;;;;;;;4.63;1.90;;;41.90;1.00;;;;;;4975156;28;20202;-91
2022/07/03 06:58:30;;;;;;;2.35;1.50;;;41.90;1.00;;;;;;4975100;28;20556;-90
2022/07/03 07:00:57;;;;;;;2.58;1.30;;;42.10;1.00;;;;;;4974516;28;20218;-91
2022/07/03 07:03:24;;;;;;;3.30;3.00;;;42.10;1.00;;;;;;4975170;28;20260;-93
2022/07/03 07:05:51;;;;;;;2.38;1.30;;;42.20;1.00;;;;;;4975080;28;20207;-92
2022/07/03 07:08:18;;;;;;;2.20;2.00;;;42.30;1.00;;;;;;4974696;28;20191;-92
2022/07/03 07:10:45;;;;;;;3.50;1.50;;;42.30;1.00;;;;;;4974859;28;20202;-91
2022/07/03 07:13:12;;;;;;;3.20;1.50;;;42.00;1.00;;;;;;4974804;28;20563;-91
2022/07/03 07:15:41;;;;;;;1.88;1.50;;;41.70;1.00;;;;;;4974448;28;20559;-91
2022/07/03 07:18:08;;;;;;;2.63;1.40;;;41.60;1.00;;;;;;4974373;28;20592;-90
2022/07/03 07:20:35;;;;;;;2.78;1.67;;;41.50;1.00;;;;;;4974433;28;20607;-90
2022/07/03 07:23:02;;;;;;;1.98;1.48;;;41.60;1.00;;;;;;4974050;28;20227;-90
2022/07/03 07:25:29;;;;;;;2.97;1.50;;;41.60;1.00;;;;;;4974484;28;20203;-91
2022/07/03 07:27:56;;;;;;;3.47;1.70;;;41.60;1.00;;;;;;4974437;28;20231;-90
2022/07/03 07:30:23;;;;;;;4.90;1.70;;;41.50;1.00;;;;;;4974407;28;20610;-90
2022/07/03 07:32:52;;;;;;;3.97;1.52;;;41.40;1.00;;;;;;4974299;28;20210;-92
2022/07/03 07:35:19;;;;;;;2.30;1.60;;;41.40;1.00;;;;;;4974451;28;20207;-90
2022/07/03 07:37:48;;;;;;;1.70;1.40;;;41.40;1.00;;;;;;4974280;28;20214;-89
2022/07/03 07:40:15;;;;;;;1.75;1.23;;;41.50;1.00;;;;;;4974379;28;20199;-91
2022/07/03 07:42:42;;;;;;;1.67;1.42;;;41.40;1.00;;;;;;4973661;28;20226;-90
2022/07/03 07:45:10;;;;;;;3.00;1.55;;;41.40;1.00;;;;;;4974096;28;20253;-90
2022/07/03 07:47:37;;;;;;;2.35;1.60;;;41.30;1.00;;;;;;4974243;28;20199;-90
2022/07/03 07:50:07;;;;;;;2.83;1.80;;;41.20;1.00;;;;;;4974323;28;20227;-90
2022/07/03 07:52:34;;;;;;;1.88;1.40;;;41.20;1.00;;;;;;4974046;28;20210;-90
2022/07/03 07:55:01;;;;;;;1.88;1.30;;;41.10;1.00;;;;;;4974065;28;20207;-90
2022/07/03 07:57:35;;;;;;;3.58;1.63;;;40.90;1.00;;;;;;4973994;28;20650;-90
2022/07/03 08:00:07;;;;;;;2.13;1.40;;;40.70;1.00;;;;;;4974072;28;20188;-91
2022/07/03 08:08:01;;;;;;;1.60;1.25;;;39.90;1.00;;;;;;4973745;28;20182;-91
2022/07/03 08:10:28;;;;;;;1.38;1.17;;;39.60;1.00;;;;;;4974051;28;20195;-90
2022/07/03 08:12:56;;;;;;;1.67;1.50;;;39.70;1.00;;;;;;4976352;28;20116;-89
2022/07/03 08:15:23;;;;;;;1.58;1.33;;;39.00;1.00;;;;;;4973962;28;20561;-91
2022/07/03 08:17:50;;;;;;;2.80;1.30;;;38.10;1.00;;;;;;4974104;28;20103;-90
2022/07/03 08:20:18;;;;;;;2.63;1.50;;;37.20;1.00;;;;;;4974349;28;20662;-90
2022/07/03 08:22:45;;;;;;;2.08;1.30;;;36.40;1.00;;;;;;4974694;28;20277;-89
2022/07/03 08:25:12;;;;;;;2.20;1.50;;;35.40;1.00;;;;;;4973901;28;20197;-89
2022/07/03 08:27:39;;;;;;;1.95;1.50;;;34.40;1.00;;;;;;4974270;28;20188;-89
2022/07/03 08:30:08;;;;;;;3.33;1.60;;;34.30;1.00;;;;;;4973940;28;20200;-90
2022/07/03 08:32:35;;;;;;;2.15;1.40;;;34.70;1.00;;;;;;4975714;28;20203;-90
2022/07/03 08:35:02;;;;;;;2.00;1.25;;;34.40;1.00;;;;;;4975784;28;20207;-89
2022/07/03 08:37:31;;;;;;;3.13;1.67;;;34.10;1.00;;;;;;4976423;28;20673;-88
2022/07/03 08:39:58;;;;;;;3.60;1.50;;;33.60;1.00;;;;;;4976525;28;20191;-89
2022/07/03 08:42:26;;;;;;;1.80;1.50;;;32.90;1.00;;;;;;4977089;28;20227;-89
2022/07/03 08:44:54;;;;;;;;;;;32.30;1.00;;;;;;4975363;28;20092;-90
2022/07/03 08:47:22;;;;;;;2.33;1.35;;;32.90;1.00;;;;;;4974338;28;20200;-89
2022/07/03 08:49:50;;;;;;;2.00;1.60;;;33.70;1.00;;;;;;4974032;28;20231;-90
2022/07/03 08:52:18;;;;;;;2.15;1.50;;;33.50;1.00;;;;;;4973956;28;20223;-89
2022/07/03 08:54:46;;;;;;;1.42;1.30;;;33.10;1.00;;;;;;4976460;28;20854;-88
2022/07/03 08:57:13;;;;;;;2.03;1.25;;;33.30;1.00;;;;;;4978358;28;20331;-90
2022/07/03 08:59:41;;;;;;;2.60;1.40;;;33.40;1.00;;;;;;4978728;28;20253;-89
2022/07/03 09:02:08;;;;;;;2.35;1.42;;;33.20;1.00;;;;;;4978500;28;20274;-90
2022/07/03 09:04:36;;;;;;;2.60;1.35;;;33.10;1.00;;;;;;4978851;28;20199;-89
2022/07/03 09:07:03;;;;;;;1.85;1.10;;;32.60;1.00;;;;;;4979590;28;20200;-89
2022/07/03 09:09:30;;;;;;;2.38;1.20;;;32.50;1.00;;;;;;4978591;28;20204;-90
2022/07/03 09:12:00;;;;;;;3.70;1.23;;;33.10;1.00;;;;;;4978395;28;20200;-89
2022/07/03 09:14:27;;;;;;;4.45;1.20;;;33.80;1.00;;;;;;4978856;28;20187;-89
2022/07/03 09:16:54;;;;;;;2.55;1.10;;;33.90;1.00;;;;;;4977011;28;20594;-89
2022/07/03 09:19:43;;;;;;;1.65;1.10;;;33.60;1.00;;;;;;4977938;28;20207;-88
2022/07/03 09:22:24;;;;;;;2.38;1.40;;;33.30;1.00;;;;;;4979165;28;20258;-89
2022/07/03 09:24:53;;;;;;;1.63;1.10;;;33.20;1.00;;;;;;4978287;28;20194;-89
2022/07/03 09:27:23;;;;;;;5.97;1.27;;;33.50;1.00;;;;;;4979161;28;20200;-89
2022/07/03 09:30:00;;;;;;;2.75;1.45;;;34.00;1.00;;;;;;4978826;28;20204;-89
2022/07/03 09:32:31;;;;;;;5.03;1.10;;;33.90;1.00;;;;;;4978767;28;20184;-90
2022/07/03 09:35:17;;;;;;;1.80;1.10;;;33.20;1.00;;;;;;4978718;28;20188;-89
2022/07/03 09:37:53;;;;;;;2.55;1.15;;;32.90;1.00;;;;;;4977413;28;20176;-88
2022/07/03 09:40:20;;;;;;;3.25;1.20;;;32.90;1.00;;;;;;4977725;28;20258;-88
2022/07/03 09:43:03;;;;;;;1.40;1.20;;;32.90;1.00;;;;;;4977710;28;20246;-89
2022/07/03 09:45:51;;;;;;;2.40;1.10;;;32.60;1.00;;;;;;4976420;28;20199;-89
2022/07/03 09:48:26;;;;;;;2.25;1.30;;;32.40;1.00;;;;;;4977526;28;20184;-90
2022/07/03 09:51:13;;;;;;;2.10;1.20;;;32.00;1.00;;;;;;4977816;28;20230;-91
2022/07/03 09:53:56;;;;;;;2.17;1.20;;;31.60;1.00;;;;;;4977661;28;20184;-89
2022/07/03 09:56:25;;;;;;;1.50;1.10;;;31.40;1.00;;;;;;4976939;28;20199;-88
2022/07/03 09:59:10;;;;;;;2.08;1.23;;;31.20;1.00;;;;;;4978038;28;20211;-89
2022/07/03 10:01:39;;;;;;;1.52;1.42;;;31.20;1.00;;;;;;4977501;28;20222;-90
2022/07/03 10:04:17;;;;;;;3.38;1.40;;;31.20;1.00;;;;;;4977636;28;20658;-88
2022/07/03 10:06:55;;;;;;;4.15;1.58;;;30.90;1.00;;;;;;4975610;28;20199;-88
2022/07/03 10:09:24;;;;;;;3.47;1.38;;;30.70;1.00;;;;;;4978021;28;20194;-90
2022/07/03 10:11:52;;;;;;;2.30;1.20;;;30.50;1.00;;;;;;4978109;28;20630;-90
2022/07/03 10:14:21;;;;;;;2.00;1.10;;;30.00;1.00;;;;;;4978437;28;20195;-88
2022/07/03 10:16:50;;;;;;;2.30;1.38;;;29.80;1.00;;;;;;4977186;28;20196;-90
2022/07/03 10:19:19;;;;;;;2.22;1.30;;;29.90;1.00;;;;;;4976100;28;20227;-88
2022/07/03 10:21:51;;;;;;;2.33;1.27;;;29.90;1.00;;;;;;4976011;28;20418;-87
2022/07/03 10:24:19;;;;;;;3.60;1.20;;;30.20;1.00;;;;;;4975808;28;20188;-88
2022/07/03 10:26:48;;;;;;;2.20;0.90;;;30.30;1.00;;;;;;4975782;28;20226;-88
2022/07/03 10:29:16;;;;;;;3.00;1.10;;;30.30;1.00;;;;;;4975948;28;20231;-88
2022/07/03 10:31:47;;;;;;;2.92;1.10;;;30.40;1.00;;;;;;4975755;28;20298;-90
2022/07/03 10:34:18;;;;;;;1.83;1.08;;;30.50;1.00;;;;;;4975942;28;20631;-88
2022/07/03 10:36:46;;;;;;;2.13;1.25;;;30.40;1.00;;;;;;4976063;28;20196;-89
2022/07/03 10:39:25;;;;;;;1.52;1.02;;;30.00;1.00;;;;;;4976080;28;20200;-89
2022/07/03 10:45:03;;;;;;;1.45;1.00;;;29.00;1.00;;;;;;4975790;28;20231;-88
2022/07/03 10:47:44;;;;;;;2.28;1.40;;;28.80;1.00;;;;;;4976097;28;20184;-88
2022/07/03 10:50:13;;;;;;;4.97;1.10;;;28.60;1.00;;;;;;4975685;28;20259;-89
2022/07/03 10:52:41;;;;;;;2.60;1.42;;;28.80;1.00;;;;;;4975418;28;20200;-89
2022/07/03 10:55:09;;;;;;;3.85;1.40;;;28.90;1.00;;;;;;4975162;28;20270;-89
2022/07/03 10:57:37;;;;;;;2.42;1.20;;;29.00;1.00;;;;;;4975839;28;20545;-88
2022/07/03 11:00:22;;;;;;;4.13;1.35;;;29.10;1.00;;;;;;4975665;28;20191;-88
2022/07/03 11:02:52;;;;;;;2.13;1.30;;;29.10;1.00;;;;;;4975367;28;20223;-88
2022/07/03 11:05:24;;;;;;;2.28;1.35;;;29.10;1.00;;;;;;4975446;28;20195;-88
2022/07/03 11:08:11;;;;;;;2.30;1.40;;;29.30;1.00;;;;;;4975390;28;20612;-87
2022/07/03 11:10:42;;;;;;;2.58;1.30;;;29.20;1.00;;;;;;4974917;28;20659;-89
2022/07/03 11:13:20;;;;;;;1.65;1.35;;;29.20;1.00;;;;;;4975267;28;20188;-88
2022/07/03 11:15:50;;;;;;;2.13;1.30;;;29.30;1.00;;;;;;4975049;28;20204;-90
2022/07/03 11:18:27;;;;;;;3.30;1.45;;;29.20;1.00;;;;;;4975021;28;20662;-87
2022/07/03 11:21:20;;;;;;;9.38;1.50;;;29.20;1.00;;;;;;4975772;28;20611;-88
2022/07/03 11:24:14;;;;;;;2.15;1.52;;;29.00;1.00;;;;;;4974746;28;20633;-88
2022/07/03 11:26:41;;;;;;;3.50;1.63;;;28.70;1.00;;;;;;4975141;28;20544;-88
2022/07/03 11:29:25;;;;;;;3.97;1.30;;;28.30;1.00;;;;;;4975152;28;20203;-89
2022/07/03 11:31:52;;;;;;;2.63;1.27;;;28.20;1.00;;;;;;4975058;28;20188;-88
2022/07/03 11:34:22;;;;;;;1.50;1.30;;;28.10;1.00;;;;;;4974461;28;20187;-89
2022/07/03 11:36:49;;;;;;;3.47;1.45;;;28.10;1.00;;;;;;4974708;28;20203;-88
2022/07/03 11:39:19;;;;;;;2.13;1.38;;;28.20;1.00;;;;;;4974676;28;20191;-88
2022/07/03 11:41:47;;;;;;;1.30;1.20;;;28.40;1.00;;;;;;4974714;28;20258;-90
2022/07/03 11:44:22;;;;;;;2.28;1.30;;;28.60;1.00;;;;;;4974613;28;20218;-88
2022/07/03 11:46:51;;;;;;;2.60;1.27;;;28.90;1.00;;;;;;4974701;28;20649;-88
2022/07/03 11:49:22;;;;;;;10.95;1.65;;;29.30;1.00;;;;;;4974772;28;20196;-90
2022/07/03 11:51:57;;;;;;;2.03;1.30;;;29.50;1.00;;;;;;4975015;28;20623;-88
2022/07/03 11:54:25;;;;;;;2.20;1.20;;;29.60;1.00;;;;;;4974809;28;20234;-90
2022/07/03 11:56:52;;;;;;;1.40;1.15;;;29.50;1.00;;;;;;4974731;28;20208;-89
2022/07/03 11:59:19;;;;;;;1.52;1.30;;;29.50;1.00;;;;;;4975099;28;20222;-89
2022/07/03 12:01:47;;;;;;;1.65;1.10;;;29.60;1.00;;;;;;4974749;28;20685;-89
2022/07/03 12:04:16;;;;;;;3.50;1.30;;;29.40;1.00;;;;;;4974462;28;20278;-90
2022/07/03 12:06:48;;;;;;;2.20;1.30;;;29.10;1.00;;;;;;4975417;28;20226;-88
2022/07/03 12:09:18;;;;;;;1.30;1.20;;;28.80;1.00;;;;;;4976995;28;20286;-89
2022/07/03 12:11:59;;;;;;;1.45;1.20;;;28.60;1.00;;;;;;4978441;28;20672;-88
2022/07/03 12:14:37;;;;;;;2.88;1.08;;;28.60;1.00;;;;;;4978205;28;20195;-88
2022/07/03 12:17:05;;;;;;;1.95;1.30;;;28.70;1.00;;;;;;4977503;28;20210;-88
2022/07/03 12:19:32;;;;;;;4.03;1.50;;;28.80;1.00;;;;;;4978216;28;20584;-90
2022/07/03 12:22:01;;;;;;;4.03;1.90;;;28.80;1.00;;;;;;4977486;28;20204;-88
2022/07/03 12:24:28;;;;;;;2.47;1.25;;;28.90;1.00;;;;;;4978648;28;20226;-90
2022/07/03 12:26:55;;;;;;;1.90;1.30;;;28.90;1.00;;;;;;4977510;28;20192;-88
2022/07/03 12:29:23;;;;;;;3.72;1.17;;;29.10;1.00;;;;;;4980100;28;20199;-88
2022/07/03 12:31:52;;;;;;;2.08;1.40;;;29.20;1.00;;;;;;4982328;28;20555;-89
2022/07/03 12:34:20;;;;;;;1.67;1.35;;;29.30;1.00;;;;;;4978219;28;20223;-88
2022/07/03 12:37:06;;;;;;;2.40;1.20;;;29.20;1.00;;;;;;4980756;28;20290;-88
2022/07/03 12:39:43;;;;;;;2.05;1.33;;;29.10;1.00;;;;;;4978739;28;20188;-88
2022/07/03 12:42:20;;;;;;;1.25;1.15;;;29.00;1.00;;;;;;4978652;28;20207;-89
2022/07/03 12:44:57;;;;;;;2.70;1.30;;;29.00;1.00;;;;;;4978308;28;20704;-89
2022/07/03 12:47:25;;;;;;;1.58;1.35;;;28.80;1.00;;;;;;4977825;28;20545;-88
2022/07/03 12:50:00;;;;;;;2.35;1.50;;;28.70;1.00;;;;;;4978369;28;20234;-90
2022/07/03 12:52:29;;;;;;;2.60;1.20;;;28.50;1.00;;;;;;4978288;28;20565;-88
2022/07/03 12:54:56;;;;;;;1.30;1.20;;;28.40;1.00;;;;;;4978617;28;20191;-88
2022/07/03 13:00:16;;;;;;;1.35;1.20;;;28.10;1.00;;;;;;4960632;28;20191;-88
2022/07/03 13:02:45;;;;;;;2.45;1.58;;;28.00;1.00;;;;;;4977916;28;20305;-88
2022/07/03 13:05:17;;;;;;;2.38;1.58;;;28.00;1.00;;;;;;4977858;28;20199;-87
2022/07/03 13:07:47;;;;;;;2.22;1.40;;;28.10;1.00;;;;;;4977959;28;20188;-88
2022/07/03 13:10:15;;;;;;;1.83;1.42;;;28.30;1.00;;;;;;4978189;28;20215;-88
2022/07/03 13:12:51;;;;;;;2.72;1.30;;;28.40;1.00;;;;;;4978162;28;20203;-89
2022/07/03 13:15:19;;;;;;;3.33;1.40;;;28.50;1.00;;;;;;4977579;28;20191;-88
2022/07/03 13:17:58;;;;;;;1.63;1.33;;;28.70;1.00;;;;;;4977878;28;20235;-89
2022/07/03 13:20:26;;;;;;;1.63;1.33;;;28.80;1.00;;;;;;4977917;28;20212;-88
2022/07/03 13:22:56;;;;;;;2.50;1.30;;;29.00;1.00;;;;;;4977339;28;20275;-88
2022/07/03 13:25:24;;;;;;;1.60;1.50;;;29.10;1.00;;;;;;4977437;28;20206;-88
2022/07/03 13:27:51;;;;;;;1.75;1.48;;;29.10;1.00;;;;;;4977102;28;20250;-88
2022/07/03 13:30:19;;;;;;;2.42;1.40;;;29.00;1.00;;;;;;4977917;28;20198;-89
2022/07/03 13:32:47;;;;;;;3.67;1.45;;;29.00;1.00;;;;;;4978026;28;20211;-89
2022/07/03 13:35:14;;;;;;;1.88;1.45;;;28.90;1.00;;;;;;4977472;28;20211;-89
2022/07/03 13:37:41;;;;;;;1.90;1.23;;;29.00;1.00;;;;;;4977041;28;20200;-90
2022/07/03 13:40:10;;;;;;;2.50;1.13;;;29.10;1.00;;;;;;4976582;28;20595;-89
2022/07/03 13:42:37;;;;;;;1.55;1.20;;;29.30;1.00;;;;;;4977453;28;20212;-87
2022/07/03 13:45:05;;;;;;;1.60;1.10;;;29.30;1.00;;;;;;4977319;28;20207;-88
2022/07/03 13:47:32;;;;;;;2.58;1.35;;;29.30;1.00;;;;;;4977481;28;20575;-88
2022/07/03 13:49:59;;;;;;;2.50;1.20;;;29.20;1.00;;;;;;4980146;28;20231;-89
2022/07/03 13:52:26;;;;;;;2.45;2.00;;;29.20;1.00;;;;;;4981576;28;20204;-89
2022/07/03 13:54:53;;;;;;;6.47;2.83;;;29.10;1.00;;;;;;4980263;28;20202;-91
2022/07/03 13:57:21;;;;;;;1.80;1.70;;;29.00;1.00;;;;;;4978929;28;20205;-89
2022/07/03 13:59:49;;;;;;;2.80;1.50;;;28.90;1.00;;;;;;4977785;28;20207;-88
2022/07/03 14:02:16;;;;;;;2.08;1.35;;;29.00;1.00;;;;;;4978409;28;20203;-88
2022/07/03 14:04:43;;;;;;;2.30;1.50;;;29.00;1.00;;;;;;4978248;28;20224;-88
2022/07/03 14:07:10;;;;;;;1.40;1.30;;;29.10;1.00;;;;;;4979367;28;20619;-88
2022/07/03 14:09:38;;;;;;;1.25;1.15;;;29.00;1.00;;;;;;4978901;28;20194;-90
2022/07/03 14:12:06;;;;;;;2.83;1.40;;;28.90;1.00;;;;;;4978026;28;20203;-89
2022/07/03 14:14:34;;;;;;;1.85;1.50;;;28.70;1.00;;;;;;4978592;28;20207;-89
2022/07/03 14:17:01;;;;;;;3.22;1.60;;;28.60;1.00;;;;;;4979709;28;20203;-90
2022/07/03 14:19:28;;;;;;;4.05;1.42;;;28.50;1.00;;;;;;4979416;28;20192;-91
2022/07/03 14:21:55;;;;;;;4.00;1.50;;;28.60;1.00;;;;;;4978528;28;20199;-89
2022/07/03 14:24:22;;;;;;;1.50;1.30;;;28.50;1.00;;;;;;4977216;28;20231;-88
2022/07/03 14:32:32;;;;;;;1.50;1.40;;;27.90;1.00;;;;;;4977350;28;20183;-89
2022/07/03 14:35:00;;;;;;;1.83;1.45;;;27.80;1.00;;;;;;4979734;28;20251;-88
2022/07/03 14:37:27;;;;;;;2.40;1.67;;;27.80;1.00;;;;;;4979797;28;20228;-88
2022/07/03 14:39:55;;;;;;;2.72;1.48;;;27.90;1.00;;;;;;4978794;28;20196;-89
2022/07/03 14:42:22;;;;;;;2.03;1.58;;;28.00;1.00;;;;;;4979746;28;20196;-89
2022/07/03 14:44:50;;;;;;;2.45;1.60;;;28.20;1.00;;;;;;4979533;28;20220;-90
2022/07/03 14:47:18;;;;;;;2.72;1.50;;;28.40;1.00;;;;;;4979261;28;20646;-90
2022/07/03 14:49:46;;;;;;;2.90;1.70;;;28.60;1.00;;;;;;4979961;28;20228;-88
2022/07/03 14:52:13;;;;;;;3.38;1.63;;;28.70;1.00;;;;;;4979405;28;20202;-88
2022/07/03 14:54:41;;;;;;;1.80;1.40;;;28.80;1.00;;;;;;4978749;28;20282;-90
2022/07/03 14:57:19;;;;;;;2.20;1.33;;;28.80;1.00;;;;;;4976785;28;20560;-89
2022/07/03 15:00:00;;;;;;;1.95;1.40;;;28.80;1.00;;;;;;4976120;28;20268;-88
2022/07/03 15:02:34;;;;;;;2.78;1.70;;;28.60;1.00;;;;;;4978766;28;20190;-88
2022/07/03 15:05:08;;;;;;;1.90;1.40;;;28.60;1.00;;;;;;4979499;28;20692;-89
2022/07/03 15:07:38;;;;;;;1.85;1.50;;;28.50;1.00;;;;;;4978571;28;20215;-88
2022/07/03 15:10:07;;;;;;;3.00;1.55;;;28.40;1.00;;;;;;4977767;28;20207;-88
2022/07/03 15:12:38;;;;;;;3.20;1.52;;;28.30;1.00;;;;;;4978593;28;20199;-88
2022/07/03 15:15:10;;;;;;;2.25;1.27;;;28.10;1.00;;;;;;4978692;28;20176;-88
2022/07/03 15:17:38;;;;;;;1.80;1.50;;;28.00;1.00;;;;;;4976176;28;20214;-90
2022/07/03 15:20:07;;;;;;;1.70;1.60;;;28.00;1.00;;;;;;4976108;28;20207;-88
2022/07/03 15:22:35;;;;;;;20.38;18.45;;;28.10;1.00;;;;;;4978973;28;20203;-88
2022/07/03 15:25:03;;;;;;;3.30;2.53;;;28.20;1.00;;;;;;4977108;28;20259;-88
2022/07/03 15:27:31;;;;;;;1.55;1.35;;;28.20;1.00;;;;;;4975773;28;20215;-89
2022/07/03 15:29:59;;;;;;;2.55;1.92;;;28.20;1.00;;;;;;4976799;28;20200;-89
2022/07/03 15:32:27;;;;;;;2.47;1.40;;;28.10;1.00;;;;;;4978106;28;20691;-88
2022/07/03 15:34:55;;;;;;;3.13;1.77;;;28.10;1.00;;;;;;4975856;28;20199;-90
2022/07/03 15:37:44;;;;;;;3.53;1.50;;;28.10;1.00;;;;;;4978513;28;20211;-88
2022/07/03 15:40:19;;;;;;;1.60;1.50;;;28.00;1.00;;;;;;4977437;28;20192;-90
2022/07/03 15:43:02;;;;;;;2.28;1.85;;;27.90;1.00;;;;;;4977713;28;20183;-88
2022/07/03 15:45:38;;;;;;;2.13;1.75;;;27.90;1.00;;;;;;4977856;28;20246;-89
2022/07/03 15:48:12;;;;;;;2.90;1.70;;;27.80;1.00;;;;;;4977134;28;20203;-88
2022/07/03 15:50:52;;;;;;;3.35;1.80;;;27.70;1.00;;;;;;4977222;28;20298;-88
2022/07/03 15:53:20;;;;;;;2.40;1.60;;;27.60;1.00;;;;;;4976308;28;25069;-88
2022/07/03 15:55:49;;;;;;;2.47;1.52;;;27.60;1.00;;;;;;4978389;28;20223;-91
2022/07/03 15:58:17;;;;;;;2.22;1.67;;;27.60;1.00;;;;;;4976214;28;20206;-88
2022/07/03 16:02:11;;;;;;;2.53;1.63;;;27.50;1.00;;;;;;4976094;28;20566;-88
2022/07/03 16:03:43;;;;;;;2.30;1.73;;;27.50;1.00;;;;;;4975017;28;20314;-89
2022/07/03 16:06:11;;;;;;;2.42;1.60;;;27.40;1.00;;;;;;4976515;28;20211;-89
2022/07/03 16:08:44;;;;;;;2.60;1.80;;;27.30;1.00;;;;;;4975406;28;20459;-89
2022/07/03 16:11:11;;;;;;;1.77;1.67;;;27.30;1.00;;;;;;4976747;28;20199;-87
2022/07/03 16:13:39;;;;;;;1.98;1.77;;;27.30;1.00;;;;;;4975734;28;20203;-88
2022/07/03 16:16:08;;;;;;;2.00;1.75;;;27.30;1.00;;;;;;4976051;28;20199;-88
2022/07/03 16:18:37;;;;;;;3.00;2.15;;;27.30;1.00;;;;;;4978455;28;20195;-88
2022/07/03 16:21:04;;;;;;;3.05;1.80;;;27.30;1.00;;;;;;4978687;28;20196;-88
2022/07/03 16:23:34;;;;;;;4.43;1.70;;;27.20;1.00;;;;;;4978219;28;20216;-90